sensor_id;sensor_type;location;lat;lon;timestamp;P1;durP1;ratioP1;P2;durP2;ratioP2
7729;SDS011;3908;52.310;7.230;2022-08-11T00:02:11;4.00;;;2.83;;
7729;SDS011;3908;52.310;7.230;2022-08-11T00:05:00;6.93;;;2.73;;
7729;SDS011;3908;52.310;7.230;2022-08-11T00:07:52;4.60;;;2.73;;
7729;SDS011;3908;52.310;7.230;2022-08-11T00:10:41;4.03;;;3.10;;
7729;SDS011;3908;52.310;7.230;2022-08-11T00:13:32;2.73;;;2.50;;
7729;SDS011;3908;52.310;7.230;2022-08-11T00:16:22;5.77;;;2.50;;
7729;SDS011;3908;52.310;7.230;2022-08-11T00:19:11;5.03;;;3.10;;
7729;SDS011;3908;52.310;7.230;2022-08-11T00:22:05;4.73;;;2.67;;
7729;SDS011;3908;52.310;7.230;2022-08-11T00:24:54;2.50;;;2.23;;
7729;SDS011;3908;52.310;7.230;2022-08-11T00:27:41;6.40;;;2.97;;
7729;SDS011;3908;52.310;7.230;2022-08-11T00:30:33;5.57;;;3.10;;
7729;SDS011;3908;52.310;7.230;2022-08-11T00:33:30;4.10;;;2.93;;
7729;SDS011;3908;52.310;7.230;2022-08-11T00:36:22;4.53;;;2.57;;
7729;SDS011;3908;52.310;7.230;2022-08-11T00:39:13;4.73;;;2.67;;
7729;SDS011;3908;52.310;7.230;2022-08-11T00:42:08;3.10;;;2.80;;
7729;SDS011;3908;52.310;7.230;2022-08-11T00:45:06;3.43;;;2.40;;
7729;SDS011;3908;52.310;7.230;2022-08-11T00:48:00;7.33;;;3.00;;
7729;SDS011;3908;52.310;7.230;2022-08-11T00:51:05;3.90;;;2.73;;
7729;SDS011;3908;52.310;7.230;2022-08-11T00:54:02;3.87;;;2.40;;
7729;SDS011;3908;52.310;7.230;2022-08-11T00:57:06;4.33;;;2.70;;
7729;SDS011;3908;52.310;7.230;2022-08-11T01:00:22;3.73;;;2.60;;
7729;SDS011;3908;52.310;7.230;2022-08-11T01:03:16;13.90;;;3.47;;
7729;SDS011;3908;52.310;7.230;2022-08-11T01:09:33;7.13;;;3.33;;
7729;SDS011;3908;52.310;7.230;2022-08-11T01:12:39;4.20;;;3.23;;
7729;SDS011;3908;52.310;7.230;2022-08-11T01:15:46;8.07;;;3.40;;
7729;SDS011;3908;52.310;7.230;2022-08-11T01:19:04;5.57;;;3.50;;
7729;SDS011;3908;52.310;7.230;2022-08-11T01:22:28;3.37;;;2.70;;
7729;SDS011;3908;52.310;7.230;2022-08-11T01:25:52;8.03;;;2.90;;
7729;SDS011;3908;52.310;7.230;2022-08-11T01:29:03;5.30;;;2.83;;
7729;SDS011;3908;52.310;7.230;2022-08-11T01:32:39;8.00;;;2.80;;
7729;SDS011;3908;52.310;7.230;2022-08-11T01:36:03;4.07;;;2.80;;
7729;SDS011;3908;52.310;7.230;2022-08-11T01:39:23;4.83;;;2.57;;
7729;SDS011;3908;52.310;7.230;2022-08-11T01:42:46;3.73;;;2.90;;
7729;SDS011;3908;52.310;7.230;2022-08-11T01:46:07;7.40;;;3.10;;
7729;SDS011;3908;52.310;7.230;2022-08-11T01:49:03;9.60;;;3.17;;
7729;SDS011;3908;52.310;7.230;2022-08-11T01:52:03;5.20;;;3.03;;
7729;SDS011;3908;52.310;7.230;2022-08-11T01:55:02;3.60;;;2.77;;
7729;SDS011;3908;52.310;7.230;2022-08-11T01:58:00;5.90;;;3.20;;
7729;SDS011;3908;52.310;7.230;2022-08-11T02:01:01;7.87;;;3.13;;
7729;SDS011;3908;52.310;7.230;2022-08-11T02:04:08;5.43;;;3.83;;
7729;SDS011;3908;52.310;7.230;2022-08-11T02:07:09;5.53;;;3.17;;
7729;SDS011;3908;52.310;7.230;2022-08-11T02:10:03;6.47;;;3.50;;
7729;SDS011;3908;52.310;7.230;2022-08-11T02:13:33;4.67;;;3.33;;
7729;SDS011;3908;52.310;7.230;2022-08-11T02:16:28;5.77;;;3.57;;
7729;SDS011;3908;52.310;7.230;2022-08-11T02:19:31;5.57;;;3.47;;
7729;SDS011;3908;52.310;7.230;2022-08-11T02:22:48;5.60;;;3.73;;
7729;SDS011;3908;52.310;7.230;2022-08-11T02:26:01;4.90;;;3.90;;
7729;SDS011;3908;52.310;7.230;2022-08-11T02:28:56;6.97;;;3.40;;
7729;SDS011;3908;52.310;7.230;2022-08-11T02:31:52;5.33;;;3.37;;
7729;SDS011;3908;52.310;7.230;2022-08-11T02:35:10;4.67;;;3.17;;
7729;SDS011;3908;52.310;7.230;2022-08-11T02:38:07;4.20;;;3.80;;
7729;SDS011;3908;52.310;7.230;2022-08-11T02:41:04;4.53;;;3.37;;
7729;SDS011;3908;52.310;7.230;2022-08-11T02:44:20;8.00;;;3.50;;
7729;SDS011;3908;52.310;7.230;2022-08-11T02:47:17;4.77;;;3.70;;
7729;SDS011;3908;52.310;7.230;2022-08-11T02:50:23;4.37;;;3.90;;
7729;SDS011;3908;52.310;7.230;2022-08-11T02:53:18;6.33;;;3.97;;
7729;SDS011;3908;52.310;7.230;2022-08-11T02:56:15;4.77;;;4.20;;
7729;SDS011;3908;52.310;7.230;2022-08-11T02:59:16;4.37;;;3.87;;
7729;SDS011;3908;52.310;7.230;2022-08-11T03:05:43;6.30;;;4.20;;
7729;SDS011;3908;52.310;7.230;2022-08-11T03:08:50;5.20;;;4.10;;
7729;SDS011;3908;52.310;7.230;2022-08-11T03:11:48;5.60;;;3.53;;
7729;SDS011;3908;52.310;7.230;2022-08-11T03:15:01;6.17;;;4.03;;
7729;SDS011;3908;52.310;7.230;2022-08-11T03:18:13;5.37;;;3.47;;
7729;SDS011;3908;52.310;7.230;2022-08-11T03:21:06;7.80;;;4.37;;
7729;SDS011;3908;52.310;7.230;2022-08-11T03:24:01;4.50;;;4.10;;
7729;SDS011;3908;52.310;7.230;2022-08-11T03:26:55;4.70;;;3.83;;
7729;SDS011;3908;52.310;7.230;2022-08-11T03:30:00;5.00;;;3.67;;
7729;SDS011;3908;52.310;7.230;2022-08-11T03:32:55;5.27;;;3.70;;
7729;SDS011;3908;52.310;7.230;2022-08-11T03:36:20;5.57;;;4.07;;
7729;SDS011;3908;52.310;7.230;2022-08-11T03:39:31;5.93;;;3.57;;
7729;SDS011;3908;52.310;7.230;2022-08-11T03:42:32;7.10;;;4.10;;
7729;SDS011;3908;52.310;7.230;2022-08-11T03:45:29;5.50;;;4.27;;
7729;SDS011;3908;52.310;7.230;2022-08-11T03:48:22;7.90;;;4.43;;
7729;SDS011;3908;52.310;7.230;2022-08-11T03:51:17;7.47;;;3.63;;
7729;SDS011;3908;52.310;7.230;2022-08-11T03:54:10;7.30;;;4.43;;
7729;SDS011;3908;52.310;7.230;2022-08-11T03:57:18;6.03;;;4.13;;
7729;SDS011;3908;52.310;7.230;2022-08-11T04:00:22;4.87;;;3.70;;
7729;SDS011;3908;52.310;7.230;2022-08-11T04:03:39;7.87;;;4.17;;
7729;SDS011;3908;52.310;7.230;2022-08-11T04:07:02;4.63;;;4.00;;
7729;SDS011;3908;52.310;7.230;2022-08-11T04:13:33;6.47;;;4.33;;
7729;SDS011;3908;52.310;7.230;2022-08-11T04:16:40;6.07;;;4.10;;
7729;SDS011;3908;52.310;7.230;2022-08-11T04:19:38;6.80;;;4.60;;
7729;SDS011;3908;52.310;7.230;2022-08-11T04:30:00;6.57;;;4.03;;
7729;SDS011;3908;52.310;7.230;2022-08-11T04:33:01;6.73;;;4.60;;
7729;SDS011;3908;52.310;7.230;2022-08-11T04:36:01;6.23;;;4.70;;
7729;SDS011;3908;52.310;7.230;2022-08-11T04:39:33;7.73;;;4.70;;
7729;SDS011;3908;52.310;7.230;2022-08-11T04:42:46;7.07;;;5.03;;
7729;SDS011;3908;52.310;7.230;2022-08-11T04:46:24;8.00;;;4.50;;
7729;SDS011;3908;52.310;7.230;2022-08-11T04:53:20;9.13;;;4.30;;
7729;SDS011;3908;52.310;7.230;2022-08-11T04:56:32;6.47;;;4.63;;
7729;SDS011;3908;52.310;7.230;2022-08-11T04:59:52;6.97;;;4.27;;
7729;SDS011;3908;52.310;7.230;2022-08-11T05:10:07;4.90;;;3.77;;
7729;SDS011;3908;52.310;7.230;2022-08-11T05:13:04;5.17;;;4.67;;
7729;SDS011;3908;52.310;7.230;2022-08-11T05:16:07;6.43;;;4.47;;
7729;SDS011;3908;52.310;7.230;2022-08-11T05:19:14;7.03;;;5.03;;
7729;SDS011;3908;52.310;7.230;2022-08-11T05:22:22;6.13;;;4.77;;
7729;SDS011;3908;52.310;7.230;2022-08-11T05:25:31;10.90;;;4.40;;
7729;SDS011;3908;52.310;7.230;2022-08-11T05:28:40;7.67;;;5.30;;
7729;SDS011;3908;52.310;7.230;2022-08-11T05:31:48;7.47;;;4.70;;
7729;SDS011;3908;52.310;7.230;2022-08-11T05:34:59;7.68;;;4.63;;
7729;SDS011;3908;52.310;7.230;2022-08-11T05:37:50;8.00;;;4.85;;
7729;SDS011;3908;52.310;7.230;2022-08-11T05:40:58;5.83;;;4.70;;
7729;SDS011;3908;52.310;7.230;2022-08-11T05:44:03;8.25;;;4.88;;
7729;SDS011;3908;52.310;7.230;2022-08-11T05:47:08;7.65;;;5.35;;
7729;SDS011;3908;52.310;7.230;2022-08-11T05:50:13;8.18;;;4.78;;
7729;SDS011;3908;52.310;7.230;2022-08-11T05:53:22;6.68;;;4.57;;
7729;SDS011;3908;52.310;7.230;2022-08-11T05:56:27;7.85;;;4.20;;
7729;SDS011;3908;52.310;7.230;2022-08-11T05:59:17;7.15;;;4.68;;
7729;SDS011;3908;52.310;7.230;2022-08-11T06:02:06;9.57;;;5.05;;
7729;SDS011;3908;52.310;7.230;2022-08-11T06:04:54;8.23;;;4.60;;
7729;SDS011;3908;52.310;7.230;2022-08-11T06:07:43;8.07;;;4.38;;
7729;SDS011;3908;52.310;7.230;2022-08-11T06:10:33;8.40;;;4.90;;
7729;SDS011;3908;52.310;7.230;2022-08-11T06:13:21;6.43;;;4.68;;
7729;SDS011;3908;52.310;7.230;2022-08-11T06:16:11;5.97;;;4.35;;
7729;SDS011;3908;52.310;7.230;2022-08-11T06:19:00;6.63;;;4.32;;
7729;SDS011;3908;52.310;7.230;2022-08-11T06:21:48;6.43;;;4.70;;
7729;SDS011;3908;52.310;7.230;2022-08-11T06:24:39;10.20;;;4.50;;
7729;SDS011;3908;52.310;7.230;2022-08-11T06:27:32;5.93;;;4.40;;
7729;SDS011;3908;52.310;7.230;2022-08-11T06:30:28;6.50;;;4.35;;
7729;SDS011;3908;52.310;7.230;2022-08-11T06:33:20;8.77;;;4.70;;
7729;SDS011;3908;52.310;7.230;2022-08-11T06:36:25;5.28;;;3.97;;
7729;SDS011;3908;52.310;7.230;2022-08-11T06:39:19;5.47;;;3.90;;
7729;SDS011;3908;52.310;7.230;2022-08-11T06:42:14;4.88;;;3.90;;
7729;SDS011;3908;52.310;7.230;2022-08-11T06:45:15;6.82;;;3.42;;
7729;SDS011;3908;52.310;7.230;2022-08-11T06:48:14;4.22;;;3.45;;
7729;SDS011;3908;52.310;7.230;2022-08-11T06:51:03;8.20;;;3.97;;
7729;SDS011;3908;52.310;7.230;2022-08-11T06:53:59;5.13;;;3.22;;
7729;SDS011;3908;52.310;7.230;2022-08-11T06:56:47;7.63;;;3.35;;
7729;SDS011;3908;52.310;7.230;2022-08-11T07:03:38;8.35;;;2.95;;
7729;SDS011;3908;52.310;7.230;2022-08-11T07:06:32;5.45;;;2.50;;
7729;SDS011;3908;52.310;7.230;2022-08-11T07:10:02;5.30;;;3.10;;
7729;SDS011;3908;52.310;7.230;2022-08-11T07:13:23;6.50;;;2.65;;
7729;SDS011;3908;52.310;7.230;2022-08-11T07:16:30;5.45;;;2.80;;
7729;SDS011;3908;52.310;7.230;2022-08-11T07:19:23;3.97;;;2.60;;
7729;SDS011;3908;52.310;7.230;2022-08-11T07:22:30;4.47;;;2.50;;
7729;SDS011;3908;52.310;7.230;2022-08-11T07:25:37;7.80;;;2.33;;
7729;SDS011;3908;52.310;7.230;2022-08-11T07:28:45;3.22;;;2.00;;
7729;SDS011;3908;52.310;7.230;2022-08-11T07:31:44;4.88;;;2.03;;
7729;SDS011;3908;52.310;7.230;2022-08-11T07:34:37;4.70;;;2.22;;
7729;SDS011;3908;52.310;7.230;2022-08-11T07:37:31;2.22;;;1.80;;
7729;SDS011;3908;52.310;7.230;2022-08-11T07:40:20;3.95;;;2.10;;
7729;SDS011;3908;52.310;7.230;2022-08-11T07:43:09;7.93;;;2.30;;
7729;SDS011;3908;52.310;7.230;2022-08-11T07:45:57;4.43;;;1.83;;
7729;SDS011;3908;52.310;7.230;2022-08-11T07:49:02;2.92;;;1.80;;
7729;SDS011;3908;52.310;7.230;2022-08-11T07:52:10;7.20;;;1.95;;
7729;SDS011;3908;52.310;7.230;2022-08-11T07:55:17;2.65;;;1.80;;
7729;SDS011;3908;52.310;7.230;2022-08-11T07:58:06;3.55;;;1.75;;
7729;SDS011;3908;52.310;7.230;2022-08-11T08:01:16;7.65;;;2.05;;
7729;SDS011;3908;52.310;7.230;2022-08-11T08:04:22;4.07;;;1.77;;
7729;SDS011;3908;52.310;7.230;2022-08-11T08:07:29;4.30;;;1.65;;
7729;SDS011;3908;52.310;7.230;2022-08-11T08:10:34;6.28;;;1.55;;
7729;SDS011;3908;52.310;7.230;2022-08-11T08:13:40;5.13;;;1.70;;
7729;SDS011;3908;52.310;7.230;2022-08-11T08:16:46;4.78;;;1.77;;
7729;SDS011;3908;52.310;7.230;2022-08-11T08:19:51;4.15;;;1.70;;
7729;SDS011;3908;52.310;7.230;2022-08-11T08:22:41;5.20;;;1.70;;
7729;SDS011;3908;52.310;7.230;2022-08-11T08:25:29;3.67;;;1.70;;
7729;SDS011;3908;52.310;7.230;2022-08-11T08:28:17;4.90;;;1.98;;
7729;SDS011;3908;52.310;7.230;2022-08-11T08:31:07;5.40;;;1.88;;
7729;SDS011;3908;52.310;7.230;2022-08-11T08:33:53;4.90;;;1.88;;
7729;SDS011;3908;52.310;7.230;2022-08-11T08:36:41;3.42;;;1.60;;
7729;SDS011;3908;52.310;7.230;2022-08-11T08:39:31;2.40;;;1.52;;
7729;SDS011;3908;52.310;7.230;2022-08-11T08:42:20;8.15;;;1.67;;
7729;SDS011;3908;52.310;7.230;2022-08-11T08:45:12;3.38;;;2.00;;
7729;SDS011;3908;52.310;7.230;2022-08-11T08:48:04;5.28;;;2.00;;
7729;SDS011;3908;52.310;7.230;2022-08-11T08:50:55;3.92;;;1.95;;
7729;SDS011;3908;52.310;7.230;2022-08-11T08:54:05;2.05;;;1.70;;
7729;SDS011;3908;52.310;7.230;2022-08-11T08:56:55;4.05;;;2.20;;
7729;SDS011;3908;52.310;7.230;2022-08-11T08:59:44;5.93;;;2.35;;
7729;SDS011;3908;52.310;7.230;2022-08-11T09:02:34;6.90;;;2.08;;
7729;SDS011;3908;52.310;7.230;2022-08-11T09:05:22;4.90;;;2.00;;
7729;SDS011;3908;52.310;7.230;2022-08-11T09:08:10;2.53;;;1.63;;
7729;SDS011;3908;52.310;7.230;2022-08-11T09:10:58;4.20;;;1.98;;
7729;SDS011;3908;52.310;7.230;2022-08-11T09:14:06;3.97;;;2.30;;
7729;SDS011;3908;52.310;7.230;2022-08-11T09:16:53;4.65;;;2.10;;
7729;SDS011;3908;52.310;7.230;2022-08-11T09:19:40;2.35;;;1.77;;
7729;SDS011;3908;52.310;7.230;2022-08-11T09:22:31;3.33;;;1.80;;
7729;SDS011;3908;52.310;7.230;2022-08-11T09:25:36;2.85;;;2.45;;
7729;SDS011;3908;52.310;7.230;2022-08-11T09:28:41;2.58;;;2.00;;
7729;SDS011;3908;52.310;7.230;2022-08-11T09:31:31;2.17;;;1.70;;
7729;SDS011;3908;52.310;7.230;2022-08-11T09:34:19;2.50;;;1.75;;
7729;SDS011;3908;52.310;7.230;2022-08-11T09:37:07;3.60;;;1.95;;
7729;SDS011;3908;52.310;7.230;2022-08-11T09:40:12;5.53;;;1.73;;
7729;SDS011;3908;52.310;7.230;2022-08-11T09:43:15;3.95;;;1.90;;
7729;SDS011;3908;52.310;7.230;2022-08-11T09:46:22;12.27;;;1.83;;
7729;SDS011;3908;52.310;7.230;2022-08-11T09:49:14;2.83;;;1.70;;
7729;SDS011;3908;52.310;7.230;2022-08-11T09:52:06;6.93;;;2.05;;
7729;SDS011;3908;52.310;7.230;2022-08-11T09:54:53;2.10;;;1.70;;
7729;SDS011;3908;52.310;7.230;2022-08-11T09:57:43;6.60;;;1.90;;
7729;SDS011;3908;52.310;7.230;2022-08-11T10:00:49;5.75;;;1.70;;
7729;SDS011;3908;52.310;7.230;2022-08-11T10:03:38;3.58;;;1.60;;
7729;SDS011;3908;52.310;7.230;2022-08-11T10:06:29;1.75;;;1.63;;
7729;SDS011;3908;52.310;7.230;2022-08-11T10:09:36;13.75;;;2.58;;
7729;SDS011;3908;52.310;7.230;2022-08-11T10:12:26;4.38;;;1.55;;
7729;SDS011;3908;52.310;7.230;2022-08-11T10:15:18;5.22;;;1.73;;
7729;SDS011;3908;52.310;7.230;2022-08-11T10:18:23;2.08;;;1.70;;
7729;SDS011;3908;52.310;7.230;2022-08-11T10:21:36;3.85;;;1.60;;
7729;SDS011;3908;52.310;7.230;2022-08-11T10:24:26;3.45;;;1.80;;
7729;SDS011;3908;52.310;7.230;2022-08-11T10:27:31;5.03;;;1.92;;
7729;SDS011;3908;52.310;7.230;2022-08-11T10:30:18;4.60;;;2.00;;
7729;SDS011;3908;52.310;7.230;2022-08-11T10:33:23;2.55;;;1.48;;
7729;SDS011;3908;52.310;7.230;2022-08-11T10:36:28;3.60;;;2.10;;
7729;SDS011;3908;52.310;7.230;2022-08-11T10:39:19;5.68;;;1.92;;
7729;SDS011;3908;52.310;7.230;2022-08-11T10:42:07;4.50;;;1.77;;
7729;SDS011;3908;52.310;7.230;2022-08-11T10:45:28;4.05;;;2.20;;
7729;SDS011;3908;52.310;7.230;2022-08-11T10:48:34;2.78;;;1.95;;
7729;SDS011;3908;52.310;7.230;2022-08-11T10:51:23;1.65;;;1.38;;
7729;SDS011;3908;52.310;7.230;2022-08-11T10:54:31;3.17;;;1.60;;
7729;SDS011;3908;52.310;7.230;2022-08-11T10:57:37;2.83;;;1.75;;
7729;SDS011;3908;52.310;7.230;2022-08-11T11:00:41;4.35;;;1.70;;
7729;SDS011;3908;52.310;7.230;2022-08-11T11:03:30;5.72;;;2.00;;
7729;SDS011;3908;52.310;7.230;2022-08-11T11:06:21;4.70;;;1.77;;
7729;SDS011;3908;52.310;7.230;2022-08-11T11:09:13;4.90;;;1.67;;
7729;SDS011;3908;52.310;7.230;2022-08-11T11:12:06;3.08;;;1.70;;
7729;SDS011;3908;52.310;7.230;2022-08-11T11:15:14;2.92;;;1.80;;
7729;SDS011;3908;52.310;7.230;2022-08-11T11:18:23;3.65;;;2.00;;
7729;SDS011;3908;52.310;7.230;2022-08-11T11:21:16;5.10;;;2.08;;
7729;SDS011;3908;52.310;7.230;2022-08-11T11:24:08;2.80;;;1.85;;
7729;SDS011;3908;52.310;7.230;2022-08-11T11:27:03;3.33;;;1.67;;
7729;SDS011;3908;52.310;7.230;2022-08-11T11:30:13;4.85;;;1.70;;
7729;SDS011;3908;52.310;7.230;2022-08-11T11:33:03;2.42;;;1.80;;
7729;SDS011;3908;52.310;7.230;2022-08-11T11:36:00;2.47;;;1.77;;
7729;SDS011;3908;52.310;7.230;2022-08-11T11:38:57;3.88;;;1.80;;
7729;SDS011;3908;52.310;7.230;2022-08-11T11:41:46;5.05;;;1.60;;
7729;SDS011;3908;52.310;7.230;2022-08-11T11:44:37;4.72;;;1.70;;
7729;SDS011;3908;52.310;7.230;2022-08-11T11:47:25;3.58;;;1.35;;
7729;SDS011;3908;52.310;7.230;2022-08-11T11:50:12;4.53;;;1.60;;
7729;SDS011;3908;52.310;7.230;2022-08-11T11:53:00;2.05;;;1.48;;
7729;SDS011;3908;52.310;7.230;2022-08-11T11:55:51;1.85;;;1.50;;
7729;SDS011;3908;52.310;7.230;2022-08-11T11:58:38;3.83;;;1.70;;
7729;SDS011;3908;52.310;7.230;2022-08-11T12:01:45;3.28;;;1.70;;
7729;SDS011;3908;52.310;7.230;2022-08-11T12:04:32;4.97;;;1.70;;
7729;SDS011;3908;52.310;7.230;2022-08-11T12:07:21;4.47;;;1.73;;
7729;SDS011;3908;52.310;7.230;2022-08-11T12:10:26;6.78;;;1.80;;
7729;SDS011;3908;52.310;7.230;2022-08-11T12:13:13;2.17;;;1.80;;
7729;SDS011;3908;52.310;7.230;2022-08-11T12:16:19;2.95;;;1.45;;
7729;SDS011;3908;52.310;7.230;2022-08-11T12:19:10;2.53;;;1.45;;
7729;SDS011;3908;52.310;7.230;2022-08-11T12:21:58;2.38;;;1.60;;
7729;SDS011;3908;52.310;7.230;2022-08-11T12:25:04;4.38;;;2.03;;
7729;SDS011;3908;52.310;7.230;2022-08-11T12:28:09;2.00;;;1.40;;
7729;SDS011;3908;52.310;7.230;2022-08-11T12:30:58;5.53;;;1.90;;
7729;SDS011;3908;52.310;7.230;2022-08-11T12:33:45;4.22;;;1.70;;
7729;SDS011;3908;52.310;7.230;2022-08-11T12:36:34;3.58;;;1.63;;
7729;SDS011;3908;52.310;7.230;2022-08-11T12:39:23;2.25;;;1.58;;
7729;SDS011;3908;52.310;7.230;2022-08-11T12:42:26;2.85;;;1.42;;
7729;SDS011;3908;52.310;7.230;2022-08-11T12:45:34;6.45;;;1.90;;
7729;SDS011;3908;52.310;7.230;2022-08-11T12:48:26;3.38;;;1.50;;
7729;SDS011;3908;52.310;7.230;2022-08-11T12:51:37;4.65;;;1.55;;
7729;SDS011;3908;52.310;7.230;2022-08-11T12:54:48;4.47;;;1.70;;
7729;SDS011;3908;52.310;7.230;2022-08-11T12:57:42;2.17;;;1.20;;
7729;SDS011;3908;52.310;7.230;2022-08-11T13:00:49;3.15;;;1.77;;
7729;SDS011;3908;52.310;7.230;2022-08-11T13:03:54;2.58;;;1.50;;
7729;SDS011;3908;52.310;7.230;2022-08-11T13:07:00;3.30;;;1.45;;
7729;SDS011;3908;52.310;7.230;2022-08-11T13:09:48;3.95;;;1.50;;
7729;SDS011;3908;52.310;7.230;2022-08-11T13:12:36;1.55;;;1.45;;
7729;SDS011;3908;52.310;7.230;2022-08-11T13:15:33;3.20;;;1.83;;
7729;SDS011;3908;52.310;7.230;2022-08-11T13:18:21;3.03;;;1.63;;
7729;SDS011;3908;52.310;7.230;2022-08-11T13:21:09;2.00;;;1.73;;
7729;SDS011;3908;52.310;7.230;2022-08-11T13:23:59;2.17;;;1.50;;
7729;SDS011;3908;52.310;7.230;2022-08-11T13:26:47;5.05;;;1.60;;
7729;SDS011;3908;52.310;7.230;2022-08-11T13:29:35;5.57;;;1.95;;
7729;SDS011;3908;52.310;7.230;2022-08-11T13:32:24;5.95;;;1.45;;
7729;SDS011;3908;52.310;7.230;2022-08-11T13:35:12;3.85;;;1.50;;
7729;SDS011;3908;52.310;7.230;2022-08-11T13:38:01;3.47;;;1.80;;
7729;SDS011;3908;52.310;7.230;2022-08-11T13:40:50;4.35;;;1.70;;
7729;SDS011;3908;52.310;7.230;2022-08-11T13:43:40;1.90;;;1.50;;
7729;SDS011;3908;52.310;7.230;2022-08-11T13:46:28;4.90;;;2.00;;
7729;SDS011;3908;52.310;7.230;2022-08-11T13:49:16;3.08;;;2.00;;
7729;SDS011;3908;52.310;7.230;2022-08-11T13:52:04;2.15;;;1.70;;
7729;SDS011;3908;52.310;7.230;2022-08-11T13:54:57;10.65;;;3.05;;
7729;SDS011;3908;52.310;7.230;2022-08-11T13:57:46;2.45;;;1.80;;
7729;SDS011;3908;52.310;7.230;2022-08-11T14:00:35;2.90;;;1.50;;
7729;SDS011;3908;52.310;7.230;2022-08-11T14:03:23;3.83;;;1.70;;
7729;SDS011;3908;52.310;7.230;2022-08-11T14:06:13;3.40;;;1.73;;
7729;SDS011;3908;52.310;7.230;2022-08-11T14:09:04;6.65;;;1.70;;
7729;SDS011;3908;52.310;7.230;2022-08-11T14:11:56;4.30;;;1.65;;
7729;SDS011;3908;52.310;7.230;2022-08-11T14:15:08;3.25;;;1.50;;
7729;SDS011;3908;52.310;7.230;2022-08-11T14:18:02;2.50;;;1.65;;
7729;SDS011;3908;52.310;7.230;2022-08-11T14:20:53;3.47;;;1.77;;
7729;SDS011;3908;52.310;7.230;2022-08-11T14:23:59;3.30;;;1.65;;
7729;SDS011;3908;52.310;7.230;2022-08-11T14:26:49;3.78;;;1.85;;
7729;SDS011;3908;52.310;7.230;2022-08-11T14:29:38;4.10;;;1.48;;
7729;SDS011;3908;52.310;7.230;2022-08-11T14:32:29;1.50;;;1.40;;
7729;SDS011;3908;52.310;7.230;2022-08-11T14:35:17;3.38;;;1.70;;
7729;SDS011;3908;52.310;7.230;2022-08-11T14:38:04;7.65;;;1.67;;
7729;SDS011;3908;52.310;7.230;2022-08-11T14:40:54;4.20;;;1.63;;
7729;SDS011;3908;52.310;7.230;2022-08-11T14:43:59;7.03;;;1.55;;
7729;SDS011;3908;52.310;7.230;2022-08-11T14:47:04;2.38;;;1.75;;
7729;SDS011;3908;52.310;7.230;2022-08-11T14:49:54;1.65;;;1.30;;
7729;SDS011;3908;52.310;7.230;2022-08-11T14:52:47;4.95;;;1.50;;
7729;SDS011;3908;52.310;7.230;2022-08-11T14:55:36;2.00;;;1.60;;
7729;SDS011;3908;52.310;7.230;2022-08-11T14:58:43;2.13;;;1.83;;
7729;SDS011;3908;52.310;7.230;2022-08-11T15:01:30;2.70;;;1.63;;
7729;SDS011;3908;52.310;7.230;2022-08-11T15:04:37;2.15;;;1.48;;
7729;SDS011;3908;52.310;7.230;2022-08-11T15:07:26;4.40;;;1.50;;
7729;SDS011;3908;52.310;7.230;2022-08-11T15:10:15;2.63;;;1.45;;
7729;SDS011;3908;52.310;7.230;2022-08-11T15:13:04;2.75;;;1.50;;
7729;SDS011;3908;52.310;7.230;2022-08-11T15:15:51;2.00;;;1.42;;
7729;SDS011;3908;52.310;7.230;2022-08-11T15:19:07;3.40;;;1.40;;
7729;SDS011;3908;52.310;7.230;2022-08-11T15:21:56;2.42;;;1.25;;
7729;SDS011;3908;52.310;7.230;2022-08-11T15:25:02;3.00;;;1.15;;
7729;SDS011;3908;52.310;7.230;2022-08-11T15:27:49;3.25;;;1.48;;
7729;SDS011;3908;52.310;7.230;2022-08-11T15:30:56;2.38;;;1.30;;
7729;SDS011;3908;52.310;7.230;2022-08-11T15:34:04;1.85;;;1.30;;
7729;SDS011;3908;52.310;7.230;2022-08-11T15:37:11;3.95;;;1.33;;
7729;SDS011;3908;52.310;7.230;2022-08-11T15:40:15;5.40;;;1.30;;
7729;SDS011;3908;52.310;7.230;2022-08-11T15:43:27;3.80;;;1.33;;
7729;SDS011;3908;52.310;7.230;2022-08-11T15:46:34;5.15;;;1.50;;
7729;SDS011;3908;52.310;7.230;2022-08-11T15:49:28;3.90;;;1.50;;
7729;SDS011;3908;52.310;7.230;2022-08-11T15:52:17;2.65;;;1.60;;
7729;SDS011;3908;52.310;7.230;2022-08-11T15:55:08;6.78;;;1.20;;
7729;SDS011;3908;52.310;7.230;2022-08-11T15:57:58;2.78;;;1.38;;
7729;SDS011;3908;52.310;7.230;2022-08-11T16:01:06;1.65;;;1.30;;
7729;SDS011;3908;52.310;7.230;2022-08-11T16:04:13;2.85;;;1.30;;
7729;SDS011;3908;52.310;7.230;2022-08-11T16:07:02;5.03;;;1.55;;
7729;SDS011;3908;52.310;7.230;2022-08-11T16:09:56;2.13;;;1.40;;
7729;SDS011;3908;52.310;7.230;2022-08-11T16:12:49;1.55;;;1.23;;
7729;SDS011;3908;52.310;7.230;2022-08-11T16:16:08;3.40;;;1.20;;
7729;SDS011;3908;52.310;7.230;2022-08-11T16:18:59;4.88;;;1.58;;
7729;SDS011;3908;52.310;7.230;2022-08-11T16:21:49;3.45;;;1.23;;
7729;SDS011;3908;52.310;7.230;2022-08-11T16:24:40;5.35;;;2.03;;
7729;SDS011;3908;52.310;7.230;2022-08-11T16:27:30;1.67;;;1.35;;
7729;SDS011;3908;52.310;7.230;2022-08-11T16:30:20;2.20;;;1.30;;
7729;SDS011;3908;52.310;7.230;2022-08-11T16:33:09;5.70;;;1.40;;
7729;SDS011;3908;52.310;7.230;2022-08-11T16:35:58;1.55;;;1.30;;
7729;SDS011;3908;52.310;7.230;2022-08-11T16:39:03;2.53;;;1.50;;
7729;SDS011;3908;52.310;7.230;2022-08-11T16:41:52;3.42;;;1.20;;
7729;SDS011;3908;52.310;7.230;2022-08-11T16:44:57;2.33;;;1.27;;
7729;SDS011;3908;52.310;7.230;2022-08-11T16:48:02;2.38;;;1.23;;
7729;SDS011;3908;52.310;7.230;2022-08-11T16:50:53;8.00;;;1.50;;
7729;SDS011;3908;52.310;7.230;2022-08-11T16:53:41;2.35;;;1.50;;
7729;SDS011;3908;52.310;7.230;2022-08-11T16:56:31;4.57;;;1.60;;
7729;SDS011;3908;52.310;7.230;2022-08-11T16:59:25;2.75;;;1.65;;
7729;SDS011;3908;52.310;7.230;2022-08-11T17:02:15;2.85;;;1.42;;
7729;SDS011;3908;52.310;7.230;2022-08-11T17:05:25;2.00;;;1.30;;
7729;SDS011;3908;52.310;7.230;2022-08-11T17:08:35;1.42;;;1.05;;
7729;SDS011;3908;52.310;7.230;2022-08-11T17:11:43;3.50;;;1.52;;
7729;SDS011;3908;52.310;7.230;2022-08-11T17:14:51;1.88;;;1.45;;
7729;SDS011;3908;52.310;7.230;2022-08-11T17:17:42;2.17;;;1.48;;
7729;SDS011;3908;52.310;7.230;2022-08-11T17:20:30;2.20;;;1.20;;
7729;SDS011;3908;52.310;7.230;2022-08-11T17:23:18;3.63;;;1.40;;
7729;SDS011;3908;52.310;7.230;2022-08-11T17:26:28;4.63;;;1.30;;
7729;SDS011;3908;52.310;7.230;2022-08-11T17:29:32;1.45;;;1.17;;
7729;SDS011;3908;52.310;7.230;2022-08-11T17:32:34;3.88;;;1.27;;
7729;SDS011;3908;52.310;7.230;2022-08-11T17:35:41;5.70;;;1.30;;
7729;SDS011;3908;52.310;7.230;2022-08-11T17:38:29;2.53;;;1.30;;
7729;SDS011;3908;52.310;7.230;2022-08-11T17:41:18;1.33;;;1.20;;
7729;SDS011;3908;52.310;7.230;2022-08-11T17:44:27;4.20;;;1.40;;
7729;SDS011;3908;52.310;7.230;2022-08-11T17:47:33;3.33;;;1.15;;
7729;SDS011;3908;52.310;7.230;2022-08-11T17:50:38;3.33;;;1.80;;
7729;SDS011;3908;52.310;7.230;2022-08-11T17:53:28;4.55;;;1.42;;
7729;SDS011;3908;52.310;7.230;2022-08-11T17:56:35;2.17;;;1.20;;
7729;SDS011;3908;52.310;7.230;2022-08-11T17:59:51;1.33;;;1.10;;
7729;SDS011;3908;52.310;7.230;2022-08-11T18:02:42;3.35;;;1.42;;
7729;SDS011;3908;52.310;7.230;2022-08-11T18:05:48;2.60;;;1.15;;
7729;SDS011;3908;52.310;7.230;2022-08-11T18:08:38;3.70;;;1.38;;
7729;SDS011;3908;52.310;7.230;2022-08-11T18:11:46;2.17;;;1.20;;
7729;SDS011;3908;52.310;7.230;2022-08-11T18:14:54;3.10;;;1.20;;
7729;SDS011;3908;52.310;7.230;2022-08-11T18:18:00;2.08;;;1.40;;
7729;SDS011;3908;52.310;7.230;2022-08-11T18:21:04;2.33;;;1.02;;
7729;SDS011;3908;52.310;7.230;2022-08-11T18:24:09;3.67;;;1.10;;
7729;SDS011;3908;52.310;7.230;2022-08-11T18:27:16;1.63;;;1.30;;
7729;SDS011;3908;52.310;7.230;2022-08-11T18:30:25;1.85;;;1.10;;
7729;SDS011;3908;52.310;7.230;2022-08-11T18:33:32;4.60;;;1.30;;
7729;SDS011;3908;52.310;7.230;2022-08-11T18:36:45;4.70;;;1.17;;
7729;SDS011;3908;52.310;7.230;2022-08-11T18:39:55;4.35;;;1.15;;
7729;SDS011;3908;52.310;7.230;2022-08-11T18:43:03;2.08;;;1.30;;
7729;SDS011;3908;52.310;7.230;2022-08-11T18:46:11;1.67;;;1.20;;
7729;SDS011;3908;52.310;7.230;2022-08-11T18:49:18;3.90;;;1.52;;
7729;SDS011;3908;52.310;7.230;2022-08-11T18:52:25;5.43;;;1.30;;
7729;SDS011;3908;52.310;7.230;2022-08-11T18:55:33;1.52;;;1.30;;
7729;SDS011;3908;52.310;7.230;2022-08-11T18:58:39;5.60;;;1.50;;
7729;SDS011;3908;52.310;7.230;2022-08-11T19:01:47;5.70;;;1.85;;
7729;SDS011;3908;52.310;7.230;2022-08-11T19:04:57;3.47;;;1.40;;